sensor_id;sensor_type;location;lat;lon;timestamp;pressure;altitude;pressure_sealevel;temperature;humidity
52927;BME280;40783;49.710;8.842;2023-02-23T00:01:23;98723.19;;;8.01;100.00
52927;BME280;40783;49.710;8.842;2023-02-23T00:03:49;98719.56;;;8.02;100.00
52927;BME280;40783;49.710;8.842;2023-02-23T00:06:14;98730.50;;;7.99;100.00
52927;BME280;40783;49.710;8.842;2023-02-23T00:08:40;98716.19;;;8.00;100.00
52927;BME280;40783;49.710;8.842;2023-02-23T00:11:07;98721.22;;;8.03;100.00
52927;BME280;40783;49.710;8.842;2023-02-23T00:13:35;98724.88;;;8.02;100.00
52927;BME280;40783;49.710;8.842;2023-02-23T00:16:12;98719.72;;;8.00;100.00
52927;BME280;40783;49.710;8.842;2023-02-23T00:18:38;98722.50;;;7.99;100.00
52927;BME280;40783;49.710;8.842;2023-02-23T00:21:16;98727.72;;;8.00;100.00
52927;BME280;40783;49.710;8.842;2023-02-23T00:23:43;98717.88;;;8.01;100.00
52927;BME280;40783;49.710;8.842;2023-02-23T00:26:11;98719.25;;;8.05;100.00
52927;BME280;40783;49.710;8.842;2023-02-23T00:28:37;98718.13;;;8.08;100.00
52927;BME280;40783;49.710;8.842;2023-02-23T00:31:05;98724.13;;;8.10;100.00
52927;BME280;40783;49.710;8.842;2023-02-23T00:33:33;98723.97;;;8.11;100.00
52927;BME280;40783;49.710;8.842;2023-02-23T00:36:04;98725.63;;;8.12;100.00
52927;BME280;40783;49.710;8.842;2023-02-23T00:38:30;98732.88;;;8.20;100.00
52927;BME280;40783;49.710;8.842;2023-02-23T00:41:02;98724.22;;;8.18;100.00
52927;BME280;40783;49.710;8.842;2023-02-23T00:43:27;98715.44;;;8.26;100.00
52927;BME280;40783;49.710;8.842;2023-02-23T00:45:55;98720.75;;;8.26;100.00
52927;BME280;40783;49.710;8.842;2023-02-23T00:48:23;98720.75;;;8.26;100.00
52927;BME280;40783;49.710;8.842;2023-02-23T00:50:56;98729.06;;;8.23;100.00
52927;BME280;40783;49.710;8.842;2023-02-23T00:53:23;98725.25;;;8.25;100.00
52927;BME280;40783;49.710;8.842;2023-02-23T00:55:51;98722.56;;;8.25;100.00
52927;BME280;40783;49.710;8.842;2023-02-23T00:58:18;98731.72;;;8.23;100.00
52927;BME280;40783;49.710;8.842;2023-02-23T01:00:43;98724.41;;;8.25;100.00
52927;BME280;40783;49.710;8.842;2023-02-23T01:03:08;98728.38;;;8.21;100.00
52927;BME280;40783;49.710;8.842;2023-02-23T01:05:36;98723.75;;;8.23;100.00
52927;BME280;40783;49.710;8.842;2023-02-23T01:08:02;98717.13;;;8.27;100.00
52927;BME280;40783;49.710;8.842;2023-02-23T01:10:28;98727.47;;;8.30;100.00
52927;BME280;40783;49.710;8.842;2023-02-23T01:12:53;98725.78;;;8.29;100.00
52927;BME280;40783;49.710;8.842;2023-02-23T01:15:19;98725.41;;;8.24;100.00
52927;BME280;40783;49.710;8.842;2023-02-23T01:17:45;98729.75;;;8.25;100.00
52927;BME280;40783;49.710;8.842;2023-02-23T01:20:11;98720.09;;;8.24;100.00
52927;BME280;40783;49.710;8.842;2023-02-23T01:22:43;98719.56;;;8.20;100.00
52927;BME280;40783;49.710;8.842;2023-02-23T01:25:09;98721.38;;;8.20;100.00
52927;BME280;40783;49.710;8.842;2023-02-23T01:27:39;98716.06;;;8.20;100.00
52927;BME280;40783;49.710;8.842;2023-02-23T01:30:04;98716.91;;;8.20;100.00
52927;BME280;40783;49.710;8.842;2023-02-23T01:32:35;98708.75;;;8.22;100.00
52927;BME280;40783;49.710;8.842;2023-02-23T01:35:02;98720.91;;;8.24;100.00
52927;BME280;40783;49.710;8.842;2023-02-23T01:37:28;98714.44;;;8.27;100.00
52927;BME280;40783;49.710;8.842;2023-02-23T01:39:55;98716.94;;;8.28;100.00
52927;BME280;40783;49.710;8.842;2023-02-23T01:42:23;98717.13;;;8.27;100.00
52927;BME280;40783;49.710;8.842;2023-02-23T01:47:17;98725.25;;;8.25;100.00
52927;BME280;40783;49.710;8.842;2023-02-23T01:49:46;98718.78;;;8.28;100.00
52927;BME280;40783;49.710;8.842;2023-02-23T01:52:14;98719.00;;;8.35;100.00
52927;BME280;40783;49.710;8.842;2023-02-23T01:54:48;98726.31;;;8.32;100.00
52927;BME280;40783;49.710;8.842;2023-02-23T01:57:16;98717.31;;;8.34;100.00
52927;BME280;40783;49.710;8.842;2023-02-23T01:59:42;98717.56;;;8.40;100.00
52927;BME280;40783;49.710;8.842;2023-02-23T02:02:08;98713.59;;;8.44;100.00
52927;BME280;40783;49.710;8.842;2023-02-23T02:04:34;98712.22;;;8.40;100.00
52927;BME280;40783;49.710;8.842;2023-02-23T02:07:10;98701.88;;;8.37;100.00
52927;BME280;40783;49.710;8.842;2023-02-23T02:09:38;98710.25;;;8.42;100.00
52927;BME280;40783;49.710;8.842;2023-02-23T02:12:07;98711.59;;;8.46;100.00
52927;BME280;40783;49.710;8.842;2023-02-23T02:14:34;98704.59;;;8.45;100.00
52927;BME280;40783;49.710;8.842;2023-02-23T02:22:14;98704.75;;;8.44;100.00
52927;BME280;40783;49.710;8.842;2023-02-23T02:30:09;98695.19;;;8.33;100.00
52927;BME280;40783;49.710;8.842;2023-02-23T02:37:55;98690.91;;;8.40;100.00
52927;BME280;40783;49.710;8.842;2023-02-23T02:40:45;98685.72;;;8.39;100.00
52927;BME280;40783;49.710;8.842;2023-02-23T02:46:14;98686.09;;;8.44;100.00
52927;BME280;40783;49.710;8.842;2023-02-23T02:48:47;98689.25;;;8.39;100.00
52927;BME280;40783;49.710;8.842;2023-02-23T02:54:13;98678.59;;;8.39;100.00
52927;BME280;40783;49.710;8.842;2023-02-23T02:56:43;98680.94;;;8.42;100.00
52927;BME280;40783;49.710;8.842;2023-02-23T02:59:15;98680.03;;;8.34;100.00
52927;BME280;40783;49.710;8.842;2023-02-23T03:01:59;98680.25;;;8.40;100.00
52927;BME280;40783;49.710;8.842;2023-02-23T03:04:47;98685.59;;;8.40;100.00
52927;BME280;40783;49.710;8.842;2023-02-23T03:10:22;98682.91;;;8.40;100.00
52927;BME280;40783;49.710;8.842;2023-02-23T03:16:16;98677.72;;;8.39;100.00
52927;BME280;40783;49.710;8.842;2023-02-23T03:21:48;98679.41;;;8.40;100.00
52927;BME280;40783;49.710;8.842;2023-02-23T03:30:10;98679.63;;;8.46;100.00
52927;BME280;40783;49.710;8.842;2023-02-23T03:32:59;98678.28;;;8.42;100.00
52927;BME280;40783;49.710;8.842;2023-02-23T03:35:51;98681.63;;;8.44;100.00
52927;BME280;40783;49.710;8.842;2023-02-23T03:38:49;98684.66;;;8.50;100.00
52927;BME280;40783;49.710;8.842;2023-02-23T03:41:35;98683.59;;;8.42;100.00
52927;BME280;40783;49.710;8.842;2023-02-23T03:44:23;98683.28;;;8.45;100.00
52927;BME280;40783;49.710;8.842;2023-02-23T03:47:09;98692.28;;;8.44;100.00
52927;BME280;40783;49.710;8.842;2023-02-23T03:49:55;98679.63;;;8.46;100.00
52927;BME280;40783;49.710;8.842;2023-02-23T03:52:44;98690.28;;;8.46;100.00
52927;BME280;40783;49.710;8.842;2023-02-23T03:55:31;98686.94;;;8.44;100.00
52927;BME280;40783;49.710;8.842;2023-02-23T03:58:17;98686.94;;;8.44;100.00
52927;BME280;40783;49.710;8.842;2023-02-23T04:01:03;98693.94;;;8.45;100.00
52927;BME280;40783;49.710;8.842;2023-02-23T04:03:48;98684.66;;;8.50;100.00
52927;BME280;40783;49.710;8.842;2023-02-23T04:06:34;98687.31;;;8.50;100.00
52927;BME280;40783;49.710;8.842;2023-02-23T04:09:19;98693.63;;;8.49;100.00
52927;BME280;40783;49.710;8.842;2023-02-23T04:12:14;98684.66;;;8.50;100.00
52927;BME280;40783;49.710;8.842;2023-02-23T04:17:26;98689.44;;;8.46;100.00
52927;BME280;40783;49.710;8.842;2023-02-23T04:19:55;98696.16;;;8.50;100.00
52927;BME280;40783;49.710;8.842;2023-02-23T04:22:21;98691.81;;;8.49;100.00
52927;BME280;40783;49.710;8.842;2023-02-23T04:24:46;98691.13;;;8.47;100.00
52927;BME280;40783;49.710;8.842;2023-02-23T04:27:12;98690.28;;;8.46;100.00
52927;BME280;40783;49.710;8.842;2023-02-23T04:29:37;98682.97;;;8.49;100.00
52927;BME280;40783;49.710;8.842;2023-02-23T04:32:03;98688.31;;;8.49;100.00
52927;BME280;40783;49.710;8.842;2023-02-23T04:34:31;98693.31;;;8.52;100.00
52927;BME280;40783;49.710;8.842;2023-02-23T04:37:00;98686.31;;;8.51;100.00
52927;BME280;40783;49.710;8.842;2023-02-23T04:39:26;98689.97;;;8.50;100.00
52927;BME280;40783;49.710;8.842;2023-02-23T04:41:51;98690.13;;;8.48;100.00
52927;BME280;40783;49.710;8.842;2023-02-23T04:44:18;98689.97;;;8.50;100.00
52927;BME280;40783;49.710;8.842;2023-02-23T04:46:43;98694.63;;;8.48;100.00
52927;BME280;40783;49.710;8.842;2023-02-23T04:49:09;98692.97;;;8.46;100.00
52927;BME280;40783;49.710;8.842;2023-02-23T04:51:34;98699.28;;;8.45;100.00
52927;BME280;40783;49.710;8.842;2023-02-23T04:54:00;98688.75;;;8.44;100.00
52927;BME280;40783;49.710;8.842;2023-02-23T04:56:26;98684.59;;;8.41;100.00
52927;BME280;40783;49.710;8.842;2023-02-23T04:58:51;98694.41;;;8.41;100.00
52927;BME280;40783;49.710;8.842;2023-02-23T05:01:19;98695.94;;;8.43;100.00
52927;BME280;40783;49.710;8.842;2023-02-23T05:03:46;98693.41;;;8.42;100.00
52927;BME280;40783;49.710;8.842;2023-02-23T05:06:15;98700.09;;;8.46;100.00
52927;BME280;40783;49.710;8.842;2023-02-23T05:08:43;98696.63;;;8.45;100.00
52927;BME280;40783;49.710;8.842;2023-02-23T05:11:09;98696.63;;;8.45;100.00
52927;BME280;40783;49.710;8.842;2023-02-23T05:13:35;98696.56;;;8.37;100.00
52927;BME280;40783;49.710;8.842;2023-02-23T05:16:03;98697.91;;;8.41;100.00
52927;BME280;40783;49.710;8.842;2023-02-23T05:18:28;98698.22;;;8.38;100.00
52927;BME280;40783;49.710;8.842;2023-02-23T05:21:00;98697.91;;;8.41;100.00
52927;BME280;40783;49.710;8.842;2023-02-23T05:23:25;98691.22;;;8.37;100.00
52927;BME280;40783;49.710;8.842;2023-02-23T05:25:50;98696.56;;;8.37;100.00
52927;BME280;40783;49.710;8.842;2023-02-23T05:28:15;98700.88;;;8.38;100.00
52927;BME280;40783;49.710;8.842;2023-02-23T05:30:41;98699.91;;;8.39;100.00
52927;BME280;40783;49.710;8.842;2023-02-23T05:33:06;98695.06;;;8.43;100.00
52927;BME280;40783;49.710;8.842;2023-02-23T05:35:31;98693.94;;;8.45;100.00
52927;BME280;40783;49.710;8.842;2023-02-23T05:37:56;98693.63;;;8.49;100.00
52927;BME280;40783;49.710;8.842;2023-02-23T05:40:21;98710.25;;;8.42;100.00
52927;BME280;40783;49.710;8.842;2023-02-23T05:42:47;98701.63;;;8.49;100.00
52927;BME280;40783;49.710;8.842;2023-02-23T05:45:12;98701.19;;;8.53;100.00
52927;BME280;40783;49.710;8.842;2023-02-23T05:47:37;98700.31;;;8.53;100.00
52927;BME280;40783;49.710;8.842;2023-02-23T05:50:05;98695.00;;;8.53;100.00
52927;BME280;40783;49.710;8.842;2023-02-23T05:52:31;98702.00;;;8.54;100.00
52927;BME280;40783;49.710;8.842;2023-02-23T05:54:59;98691.34;;;8.54;100.00
52927;BME280;40783;49.710;8.842;2023-02-23T05:57:26;98697.22;;;8.57;100.00
52927;BME280;40783;49.710;8.842;2023-02-23T05:59:54;98697.72;;;8.61;100.00
52927;BME280;40783;49.710;8.842;2023-02-23T06:02:19;98695.38;;;8.58;100.00
52927;BME280;40783;49.710;8.842;2023-02-23T06:04:44;98702.69;;;8.56;100.00
52927;BME280;40783;49.710;8.842;2023-02-23T06:07:13;98702.31;;;8.51;100.00
52927;BME280;40783;49.710;8.842;2023-02-23T06:09:38;98701.69;;;8.57;100.00
52927;BME280;40783;49.710;8.842;2023-02-23T06:12:05;98710.31;;;8.51;100.00
52927;BME280;40783;49.710;8.842;2023-02-23T06:14:33;98707.66;;;8.51;100.00
52927;BME280;40783;49.710;8.842;2023-02-23T06:17:01;98704.66;;;8.54;100.00
52927;BME280;40783;49.710;8.842;2023-02-23T06:19:26;98709.00;;;8.55;100.00
52927;BME280;40783;49.710;8.842;2023-02-23T06:21:52;98700.31;;;8.53;100.00
52927;BME280;40783;49.710;8.842;2023-02-23T06:24:19;98708.31;;;8.53;100.00
52927;BME280;40783;49.710;8.842;2023-02-23T06:26:45;98711.38;;;8.40;100.00
52927;BME280;40783;49.710;8.842;2023-02-23T06:29:10;98710.06;;;8.44;100.00
52927;BME280;40783;49.710;8.842;2023-02-23T06:31:38;98718.91;;;8.44;100.00
52927;BME280;40783;49.710;8.842;2023-02-23T06:34:03;98722.28;;;8.46;100.00
52927;BME280;40783;49.710;8.842;2023-02-23T06:36:28;98716.41;;;8.43;100.00
52927;BME280;40783;49.710;8.842;2023-02-23T06:38:56;98719.53;;;8.38;100.00
52927;BME280;40783;49.710;8.842;2023-02-23T06:41:22;98719.22;;;8.41;100.00
52927;BME280;40783;49.710;8.842;2023-02-23T06:43:47;98717.56;;;8.40;100.00
52927;BME280;40783;49.710;8.842;2023-02-23T06:46:15;98735.53;;;8.38;100.00
52927;BME280;40783;49.710;8.842;2023-02-23T06:48:40;98724.25;;;8.44;100.00
52927;BME280;40783;49.710;8.842;2023-02-23T06:51:05;98731.25;;;8.45;100.00
52927;BME280;40783;49.710;8.842;2023-02-23T06:53:30;98729.50;;;8.36;100.00
52927;BME280;40783;49.710;8.842;2023-02-23T06:55:56;98731.56;;;8.42;100.00
52927;BME280;40783;49.710;8.842;2023-02-23T06:58:21;98733.53;;;8.40;100.00
52927;BME280;40783;49.710;8.842;2023-02-23T07:00:49;98737.41;;;8.46;100.00
52927;BME280;40783;49.710;8.842;2023-02-23T07:03:14;98741.59;;;8.49;100.00
52927;BME280;40783;49.710;8.842;2023-02-23T07:05:39;98746.31;;;8.55;100.00
52927;BME280;40783;49.710;8.842;2023-02-23T07:08:05;98743.28;;;8.50;100.00
52927;BME280;40783;49.710;8.842;2023-02-23T07:10:30;98748.75;;;8.48;100.00
52927;BME280;40783;49.710;8.842;2023-02-23T07:12:58;98751.41;;;8.48;100.00
52927;BME280;40783;49.710;8.842;2023-02-23T07:15:24;98754.00;;;8.40;100.00
52927;BME280;40783;49.710;8.842;2023-02-23T07:17:49;98759.03;;;8.43;100.00
52927;BME280;40783;49.710;8.842;2023-02-23T07:20:19;98756.84;;;8.38;100.00
52927;BME280;40783;49.710;8.842;2023-02-23T07:22:44;98764.66;;;8.40;100.00
52927;BME280;40783;49.710;8.842;2023-02-23T07:25:12;98766.59;;;8.48;100.00
52927;BME280;40783;49.710;8.842;2023-02-23T07:27:41;98765.16;;;8.53;100.00
52927;BME280;40783;49.710;8.842;2023-02-23T07:30:08;98763.47;;;8.52;100.00
52927;BME280;40783;49.710;8.842;2023-02-23T07:32:34;98765.81;;;8.55;100.00
52927;BME280;40783;49.710;8.842;2023-02-23T07:34:59;98762.31;;;8.55;100.00
52927;BME280;40783;49.710;8.842;2023-02-23T07:37:26;98762.53;;;8.61;100.00
52927;BME280;40783;49.710;8.842;2023-02-23T07:39:52;98766.50;;;8.57;100.00
52927;BME280;40783;49.710;8.842;2023-02-23T07:42:17;98764.28;;;8.53;100.00
52927;BME280;40783;49.710;8.842;2023-02-23T07:44:43;98760.63;;;8.54;100.00
52927;BME280;40783;49.710;8.842;2023-02-23T07:47:08;98769.00;;;8.59;100.00
52927;BME280;40783;49.710;8.842;2023-02-23T07:49:33;98760.56;;;8.64;100.00
52927;BME280;40783;49.710;8.842;2023-02-23T07:52:01;98761.63;;;8.71;100.00
52927;BME280;40783;49.710;8.842;2023-02-23T07:54:26;98764.06;;;8.64;100.00
52927;BME280;40783;49.710;8.842;2023-02-23T07:56:51;98765.34;;;8.60;100.00
52927;BME280;40783;49.710;8.842;2023-02-23T07:59:21;98769.25;;;8.66;100.00
52927;BME280;40783;49.710;8.842;2023-02-23T08:01:46;98763.28;;;8.72;100.00
52927;BME280;40783;49.710;8.842;2023-02-23T08:04:12;98769.31;;;8.74;100.00
52927;BME280;40783;49.710;8.842;2023-02-23T08:06:37;98772.78;;;8.74;100.00
52927;BME280;40783;49.710;8.842;2023-02-23T08:09:06;98772.78;;;8.74;100.00
52927;BME280;40783;49.710;8.842;2023-02-23T08:11:34;98775.53;;;8.83;100.00
52927;BME280;40783;49.710;8.842;2023-02-23T08:14:02;98778.19;;;8.83;100.00
52927;BME280;40783;49.710;8.842;2023-02-23T08:16:28;98781.06;;;8.89;100.00
52927;BME280;40783;49.710;8.842;2023-02-23T08:18:57;98779.28;;;8.98;100.00
52927;BME280;40783;49.710;8.842;2023-02-23T08:21:25;98777.19;;;9.10;100.00
52927;BME280;40783;49.710;8.842;2023-02-23T08:23:51;98780.53;;;9.12;100.00
52927;BME280;40783;49.710;8.842;2023-02-23T08:26:16;98787.69;;;9.12;100.00
52927;BME280;40783;49.710;8.842;2023-02-23T08:28:44;98782.22;;;9.13;100.00
52927;BME280;40783;49.710;8.842;2023-02-23T08:31:12;98787.22;;;9.16;100.00
52927;BME280;40783;49.710;8.842;2023-02-23T08:33:38;98783.88;;;9.14;100.00
52927;BME280;40783;49.710;8.842;2023-02-23T08:36:06;98783.75;;;9.24;100.00
52927;BME280;40783;49.710;8.842;2023-02-23T08:38:33;98785.44;;;9.25;100.00
52927;BME280;40783;49.710;8.842;2023-02-23T08:41:03;98790.97;;;9.32;100.00
52927;BME280;40783;49.710;8.842;2023-02-23T08:43:30;98779.47;;;9.31;100.00
52927;BME280;40783;49.710;8.842;2023-02-23T08:45:55;98793.16;;;9.37;100.00
52927;BME280;40783;49.710;8.842;2023-02-23T08:48:21;98788.56;;;9.47;100.00
52927;BME280;40783;49.710;8.842;2023-02-23T08:50:49;98793.16;;;9.37;100.00
52927;BME280;40783;49.710;8.842;2023-02-23T08:53:16;98788.03;;;9.43;100.00
52927;BME280;40783;49.710;8.842;2023-02-23T08:55:42;98780.19;;;9.42;100.00
52927;BME280;40783;49.710;8.842;2023-02-23T08:58:08;98791.81;;;9.32;100.00
52927;BME280;40783;49.710;8.842;2023-02-23T09:00:36;98790.28;;;9.30;100.00
52927;BME280;40783;49.710;8.842;2023-02-23T09:03:03;98788.47;;;9.30;100.00
52927;BME280;40783;49.710;8.842;2023-02-23T09:05:29;98790.78;;;9.25;100.00
52927;BME280;40783;49.710;8.842;2023-02-23T09:07:54;98791.75;;;9.24;100.00
52927;BME280;40783;49.710;8.842;2023-02-23T09:10:19;98791.75;;;9.24;100.00
52927;BME280;40783;49.710;8.842;2023-02-23T09:13:00;98797.41;;;9.21;100.00
52927;BME280;40783;49.710;8.842;2023-02-23T09:15:25;98788.78;;;9.27;100.00
52927;BME280;40783;49.710;8.842;2023-02-23T09:17:54;98791.50;;;9.35;100.00
52927;BME280;40783;49.710;8.842;2023-02-23T09:22:55;98792.53;;;9.43;100.00
52927;BME280;40783;49.710;8.842;2023-02-23T09:25:21;98802.84;;;9.38;100.00
52927;BME280;40783;49.710;8.842;2023-02-23T09:27:47;98796.84;;;9.35;100.00
52927;BME280;40783;49.710;8.842;2023-02-23T09:30:12;98803.53;;;9.40;100.00
52927;BME280;40783;49.710;8.842;2023-02-23T09:32:43;98804.47;;;9.30;100.00
52927;BME280;40783;49.710;8.842;2023-02-23T09:35:08;98816.47;;;9.26;100.00
52927;BME280;40783;49.710;8.842;2023-02-23T09:37:33;98804.47;;;9.30;100.00
52927;BME280;40783;49.710;8.842;2023-02-23T09:39:58;98805.97;;;9.25;100.00
52927;BME280;40783;49.710;8.842;2023-02-23T09:42:44;98807.50;;;9.35;100.00
52927;BME280;40783;49.710;8.842;2023-02-23T09:50:26;98811.34;;;9.76;100.00
52927;BME280;40783;49.710;8.842;2023-02-23T09:52:55;98808.03;;;9.82;100.00
52927;BME280;40783;49.710;8.842;2023-02-23T09:55:22;98797.16;;;9.75;100.00
52927;BME280;40783;49.710;8.842;2023-02-23T09:57:49;98810.03;;;9.80;100.00
52927;BME280;40783;49.710;8.842;2023-02-23T10:02:49;98809.72;;;9.83;100.00
52927;BME280;40783;49.710;8.842;2023-02-23T10:05:18;98810.72;;;9.90;100.00
52927;BME280;40783;49.710;8.842;2023-02-23T10:12:46;98816.22;;;9.89;100.00
52927;BME280;40783;49.710;8.842;2023-02-23T10:22:50;98816.25;;;9.97;100.00
52927;BME280;40783;49.710;8.842;2023-02-23T10:25:17;98824.94;;;9.99;100.00
52927;BME280;40783;49.710;8.842;2023-02-23T10:27:44;98825.75;;;9.91;100.00
52927;BME280;40783;49.710;8.842;2023-02-23T10:30:20;98823.94;;;10.00;100.00
52927;BME280;40783;49.710;8.842;2023-02-23T10:33:04;98817.78;;;10.00;100.00
52927;BME280;40783;49.710;8.842;2023-02-23T10:35:31;98825.47;;;10.03;100.00
52927;BME280;40783;49.710;8.842;2023-02-23T10:37:56;98818.78;;;10.15;100.00
52927;BME280;40783;49.710;8.842;2023-02-23T10:40:25;98823.81;;;10.18;100.00
52927;BME280;40783;49.710;8.842;2023-02-23T10:42:52;98822.19;;;10.34;100.00
52927;BME280;40783;49.710;8.842;2023-02-23T10:45:19;98819.38;;;10.44;100.00
52927;BME280;40783;49.710;8.842;2023-02-23T10:47:56;98817.22;;;10.56;100.00
52927;BME280;40783;49.710;8.842;2023-02-23T10:50:22;98808.88;;;10.59;100.00
52927;BME280;40783;49.710;8.842;2023-02-23T10:52:50;98818.72;;;10.58;100.00
52927;BME280;40783;49.710;8.842;2023-02-23T10:55:25;98820.88;;;10.71;100.00
52927;BME280;40783;49.710;8.842;2023-02-23T10:58:01;98818.53;;;10.68;100.00
52927;BME280;40783;49.710;8.842;2023-02-23T11:00:28;98811.88;;;10.80;100.00
52927;BME280;40783;49.710;8.842;2023-02-23T11:02:57;98808.69;;;10.85;100.00
52927;BME280;40783;49.710;8.842;2023-02-23T11:05:27;98808.19;;;10.90;100.00
52927;BME280;40783;49.710;8.842;2023-02-23T11:10:39;98809.34;;;10.95;100.00
52927;BME280;40783;49.710;8.842;2023-02-23T11:13:05;98809.19;;;11.05;100.00
52927;BME280;40783;49.710;8.842;2023-02-23T11:15:33;98815.53;;;10.96;100.00
52927;BME280;40783;49.710;8.842;2023-02-23T11:18:13;98808.69;;;10.85;100.00
52927;BME280;40783;49.710;8.842;2023-02-23T11:20:44;98817.22;;;10.80;100.00
52927;BME280;40783;49.710;8.842;2023-02-23T11:25:46;98810.53;;;10.76;100.00
52927;BME280;40783;49.710;8.842;2023-02-23T11:28:16;98803.16;;;10.78;100.00
52927;BME280;40783;49.710;8.842;2023-02-23T11:30:44;98808.19;;;10.98;100.00
52927;BME280;40783;49.710;8.842;2023-02-23T11:33:12;98807.50;;;11.04;100.00
52927;BME280;40783;49.710;8.842;2023-02-23T11:35:40;98799.47;;;11.12;100.00
52927;BME280;40783;49.710;8.842;2023-02-23T11:40:39;98799.47;;;10.96;100.00
52927;BME280;40783;49.710;8.842;2023-02-23T11:45:31;98793.13;;;10.89;100.00
52927;BME280;40783;49.710;8.842;2023-02-23T11:48:03;98797.81;;;10.95;100.00
52927;BME280;40783;49.710;8.842;2023-02-23T11:52:55;98793.78;;;10.99;100.00
52927;BME280;40783;49.710;8.842;2023-02-23T11:55:20;98783.78;;;10.93;100.00
52927;BME280;40783;49.710;8.842;2023-02-23T11:57:46;98790.13;;;11.00;100.00
52927;BME280;40783;49.710;8.842;2023-02-23T12:00:21;98794.47;;;10.93;100.00
52927;BME280;40783;49.710;8.842;2023-02-23T12:02:52;98793.47;;;10.94;100.00
52927;BME280;40783;49.710;8.842;2023-02-23T12:10:38;98787.03;;;11.28;100.00
52927;BME280;40783;49.710;8.842;2023-02-23T12:13:11;98785.31;;;11.43;100.00
52927;BME280;40783;49.710;8.842;2023-02-23T12:15:43;98777.94;;;11.46;100.00
52927;BME280;40783;49.710;8.842;2023-02-23T12:20:40;98777.16;;;11.28;100.00
52927;BME280;40783;49.710;8.842;2023-02-23T12:23:08;98770.31;;;11.26;100.00
52927;BME280;40783;49.710;8.842;2023-02-23T12:25:41;98778.34;;;11.18;100.00
52927;BME280;40783;49.710;8.842;2023-02-23T12:28:20;98773.66;;;11.20;100.00
52927;BME280;40783;49.710;8.842;2023-02-23T12:33:17;98752.50;;;11.50;100.00
52927;BME280;40783;49.710;8.842;2023-02-23T12:38:27;98756.03;;;11.73;100.00
52927;BME280;40783;49.710;8.842;2023-02-23T12:41:16;98746.69;;;11.69;100.00
52927;BME280;40783;49.710;8.842;2023-02-23T12:43:49;98750.75;;;11.65;100.00
52927;BME280;40783;49.710;8.842;2023-02-23T12:46:25;98749.59;;;11.60;100.00
52927;BME280;40783;49.710;8.842;2023-02-23T12:49:18;98751.97;;;11.46;100.00
52927;BME280;40783;49.710;8.842;2023-02-23T12:54:11;98746.03;;;11.36;100.00
52927;BME280;40783;49.710;8.842;2023-02-23T12:59:15;98747.81;;;11.43;100.00
52927;BME280;40783;49.710;8.842;2023-02-23T13:01:49;98743.44;;;11.51;100.00
52927;BME280;40783;49.710;8.842;2023-02-23T13:17:27;98743.09;;;11.54;100.00
52927;BME280;40783;49.710;8.842;2023-02-23T13:27:46;98726.38;;;11.83;100.00
52927;BME280;40783;49.710;8.842;2023-02-23T13:30:14;98729.91;;;11.76;100.00
52927;BME280;40783;49.710;8.842;2023-02-23T13:32:40;98726.22;;;11.77;100.00
52927;BME280;40783;49.710;8.842;2023-02-23T13:35:09;98729.56;;;11.79;100.00
52927;BME280;40783;49.710;8.842;2023-02-23T13:37:59;98723.84;;;11.82;100.00
52927;BME280;40783;49.710;8.842;2023-02-23T13:43:12;98733.16;;;11.94;100.00
52927;BME280;40783;49.710;8.842;2023-02-23T13:48:38;98717.22;;;12.01;100.00
52927;BME280;40783;49.710;8.842;2023-02-23T13:56:30;98725.47;;;11.99;100.00
52927;BME280;40783;49.710;8.842;2023-02-23T13:59:05;98726.06;;;12.10;100.00
52927;BME280;40783;49.710;8.842;2023-02-23T14:01:39;98726.75;;;12.27;100.00
52927;BME280;40783;49.710;8.842;2023-02-23T14:04:12;98725.91;;;12.26;100.00
52927;BME280;40783;49.710;8.842;2023-02-23T14:06:39;98723.59;;;12.23;100.00
52927;BME280;40783;49.710;8.842;2023-02-23T14:09:10;98727.59;;;12.27;100.00
52927;BME280;40783;49.710;8.842;2023-02-23T14:11:41;98727.59;;;12.27;100.00
52927;BME280;40783;49.710;8.842;2023-02-23T14:14:09;98726.63;;;12.20;100.00
52927;BME280;40783;49.710;8.842;2023-02-23T14:16:36;98728.44;;;12.05;100.00
52927;BME280;40783;49.710;8.842;2023-02-23T14:21:46;98726.69;;;11.88;100.00
52927;BME280;40783;49.710;8.842;2023-02-23T14:24:22;98723.00;;;11.90;100.00
52927;BME280;40783;49.710;8.842;2023-02-23T14:40:47;98725.88;;;11.80;100.00
52927;BME280;40783;49.710;8.842;2023-02-23T14:46:13;98722.41;;;11.71;100.00
52927;BME280;40783;49.710;8.842;2023-02-23T14:48:46;98721.53;;;11.79;100.00
52927;BME280;40783;49.710;8.842;2023-02-23T14:51:40;98714.75;;;11.99;100.00
52927;BME280;40783;49.710;8.842;2023-02-23T14:54:09;98728.13;;;11.99;100.00
52927;BME280;40783;49.710;8.842;2023-02-23T14:56:43;98719.09;;;11.92;100.00
52927;BME280;40783;49.710;8.842;2023-02-23T14:59:12;98719.22;;;11.99;100.00
52927;BME280;40783;49.710;8.842;2023-02-23T15:01:41;98718.75;;;11.95;100.00
52927;BME280;40783;49.710;8.842;2023-02-23T15:06:32;98715.75;;;11.90;100.00
52927;BME280;40783;49.710;8.842;2023-02-23T15:08:57;98726.13;;;11.93;100.00
52927;BME280;40783;49.710;8.842;2023-02-23T15:11:22;98723.16;;;11.88;100.00
52927;BME280;40783;49.710;8.842;2023-02-23T15:13:50;98723.84;;;11.82;100.00
52927;BME280;40783;49.710;8.842;2023-02-23T15:18:59;98731.72;;;11.83;100.00
52927;BME280;40783;49.710;8.842;2023-02-23T15:21:26;98733.56;;;11.83;100.00
52927;BME280;40783;49.710;8.842;2023-02-23T15:23:57;98730.53;;;11.86;100.00
52927;BME280;40783;49.710;8.842;2023-02-23T15:26:33;98731.22;;;11.80;100.00
52927;BME280;40783;49.710;8.842;2023-02-23T15:31:41;98732.94;;;11.72;100.00
52927;BME280;40783;49.710;8.842;2023-02-23T15:34:15;98735.50;;;11.66;100.00
52927;BME280;40783;49.710;8.842;2023-02-23T15:36:45;98737.16;;;11.67;100.00
52927;BME280;40783;49.710;8.842;2023-02-23T15:39:15;98736.69;;;11.63;100.00
52927;BME280;40783;49.710;8.842;2023-02-23T15:41:41;98733.22;;;11.54;100.00
52927;BME280;40783;49.710;8.842;2023-02-23T15:46:37;98730.38;;;11.56;100.00